This is the latest recevied weather packets stored in our database for station/object YC0TBU-3. If no packets are shown the sender has not sent any weather packets the latest 10 day(s).
| Time | Temp. | Humidity | Pressure | Rain* | Wind** | Luminosity | Snow |
|---|---|---|---|---|---|---|---|
| 1787453301 | 32.22° C | 57% | 1018.4 hPa | - | - | - | - |
| 1787451600 | 31.11° C | 60% | 1019 hPa | - | - | - | - |
| 1787449911 | 30.56° C | 64% | 1017.9 hPa | - | - | - | - |
| 1787448185 | 28.89° C | 67% | 1018.8 hPa | - | - | - | - |
| 1787446485 | 28.89° C | 66% | 1017.9 hPa | - | - | - | - |
| 1787444793 | 30° C | 65% | 1017.2 hPa | - | - | - | - |
| 1787443053 | 30° C | 68% | 1016.7 hPa | - | - | - | - |
| 1787441353 | 30° C | 68% | 1017 hPa | - | - | - | - |
| 1787439653 | 30° C | 67% | 1017 hPa | - | - | - | - |
| 1787437953 | 30° C | 67% | 1016.4 hPa | - | - | - | - |
| 1787436253 | 30° C | 67% | 1016.2 hPa | - | - | - | - |
| 1787434553 | 30° C | 66% | 1014.9 hPa | - | - | - | - |
| 1787432853 | 30° C | 66% | 1015.1 hPa | - | - | - | - |
| 1787431153 | 30.56° C | 65% | 1014.9 hPa | - | - | - | - |
| 1787429453 | 30.56° C | 65% | 1014.6 hPa | - | - | - | - |
| 1787427753 | 30.56° C | 65% | 1014.1 hPa | - | - | - | - |
| 1787426053 | 30.56° C | 65% | 1014.9 hPa | - | - | - | - |
| 1787424353 | 30.56° C | 64% | 1014.8 hPa | - | - | - | - |
| 1787422654 | 31.11° C | 64% | 1015.1 hPa | - | - | - | - |
| 1787420953 | 31.11° C | 65% | 1015.1 hPa | - | - | - | - |
| 1787419253 | 31.67° C | 63% | 1015.9 hPa | - | - | - | - |
| 1787417553 | 31.67° C | 63% | 1017 hPa | - | - | - | - |
| 1787415853 | 31.67° C | 62% | 1015.1 hPa | - | - | - | - |
| 1787414153 | 31.67° C | 62% | 1015.9 hPa | - | - | - | - |
| 1787412453 | 31.67° C | 62% | 1016.5 hPa | - | - | - | - |
* Rain since midnight (hover to see other rain measurements)
** Current wind speed in m/s (hover to see current wind gust speed)